sensor_id;sensor_type;location;lat;lon;timestamp;P1;durP1;ratioP1;P2;durP2;ratioP2
55497;SDS011;41357;52.806;18.268;2023-02-08T00:00:37;26.13;;;9.80;;
55497;SDS011;41357;52.806;18.268;2023-02-08T00:03:03;28.08;;;10.65;;
55497;SDS011;41357;52.806;18.268;2023-02-08T00:05:29;30.77;;;12.50;;
55497;SDS011;41357;52.806;18.268;2023-02-08T00:07:56;37.65;;;12.60;;
55497;SDS011;41357;52.806;18.268;2023-02-08T00:10:22;31.75;;;12.07;;
55497;SDS011;41357;52.806;18.268;2023-02-08T00:12:48;21.42;;;7.68;;
55497;SDS011;41357;52.806;18.268;2023-02-08T00:15:16;25.10;;;10.38;;
55497;SDS011;41357;52.806;18.268;2023-02-08T00:17:42;26.85;;;9.50;;
55497;SDS011;41357;52.806;18.268;2023-02-08T00:20:08;23.23;;;7.72;;
55497;SDS011;41357;52.806;18.268;2023-02-08T00:22:35;16.52;;;7.45;;
55497;SDS011;41357;52.806;18.268;2023-02-08T00:25:02;16.88;;;7.80;;
55497;SDS011;41357;52.806;18.268;2023-02-08T00:27:29;21.48;;;8.75;;
55497;SDS011;41357;52.806;18.268;2023-02-08T00:29:55;27.33;;;9.85;;
55497;SDS011;41357;52.806;18.268;2023-02-08T00:32:21;29.27;;;11.20;;
55497;SDS011;41357;52.806;18.268;2023-02-08T00:34:47;26.73;;;10.02;;
55497;SDS011;41357;52.806;18.268;2023-02-08T00:37:13;21.05;;;10.32;;
55497;SDS011;41357;52.806;18.268;2023-02-08T00:39:39;13.60;;;5.70;;
55497;SDS011;41357;52.806;18.268;2023-02-08T00:42:05;17.27;;;6.25;;
55497;SDS011;41357;52.806;18.268;2023-02-08T00:44:31;20.23;;;6.82;;
55497;SDS011;41357;52.806;18.268;2023-02-08T00:46:57;17.50;;;7.78;;
55497;SDS011;41357;52.806;18.268;2023-02-08T00:49:24;24.55;;;9.77;;
55497;SDS011;41357;52.806;18.268;2023-02-08T00:51:50;22.98;;;9.45;;
55497;SDS011;41357;52.806;18.268;2023-02-08T00:54:17;22.98;;;9.32;;
55497;SDS011;41357;52.806;18.268;2023-02-08T00:56:43;24.48;;;8.82;;
55497;SDS011;41357;52.806;18.268;2023-02-08T00:59:09;24.15;;;8.85;;
55497;SDS011;41357;52.806;18.268;2023-02-08T01:01:36;26.50;;;10.35;;
55497;SDS011;41357;52.806;18.268;2023-02-08T01:04:02;27.60;;;9.30;;
55497;SDS011;41357;52.806;18.268;2023-02-08T01:06:28;23.63;;;9.63;;
55497;SDS011;41357;52.806;18.268;2023-02-08T01:08:55;22.45;;;9.07;;
55497;SDS011;41357;52.806;18.268;2023-02-08T01:11:22;22.77;;;8.95;;
55497;SDS011;41357;52.806;18.268;2023-02-08T01:13:50;20.90;;;9.05;;
55497;SDS011;41357;52.806;18.268;2023-02-08T01:16:20;26.60;;;9.57;;
55497;SDS011;41357;52.806;18.268;2023-02-08T01:18:47;29.10;;;10.95;;
55497;SDS011;41357;52.806;18.268;2023-02-08T01:21:16;30.90;;;10.68;;
55497;SDS011;41357;52.806;18.268;2023-02-08T01:23:42;35.05;;;12.38;;
55497;SDS011;41357;52.806;18.268;2023-02-08T01:26:09;34.45;;;11.35;;
55497;SDS011;41357;52.806;18.268;2023-02-08T01:28:36;34.65;;;12.25;;
55497;SDS011;41357;52.806;18.268;2023-02-08T01:31:06;36.92;;;13.05;;
55497;SDS011;41357;52.806;18.268;2023-02-08T01:33:32;32.97;;;11.70;;
55497;SDS011;41357;52.806;18.268;2023-02-08T01:35:58;35.20;;;12.70;;
55497;SDS011;41357;52.806;18.268;2023-02-08T01:38:24;30.88;;;11.90;;
55497;SDS011;41357;52.806;18.268;2023-02-08T01:40:50;33.22;;;13.38;;
55497;SDS011;41357;52.806;18.268;2023-02-08T01:43:21;30.73;;;12.10;;
55497;SDS011;41357;52.806;18.268;2023-02-08T01:45:48;44.40;;;13.07;;
55497;SDS011;41357;52.806;18.268;2023-02-08T01:48:17;30.45;;;12.40;;
55497;SDS011;41357;52.806;18.268;2023-02-08T01:50:54;34.58;;;13.13;;
55497;SDS011;41357;52.806;18.268;2023-02-08T01:53:22;27.25;;;11.13;;
55497;SDS011;41357;52.806;18.268;2023-02-08T01:55:51;27.67;;;11.00;;
55497;SDS011;41357;52.806;18.268;2023-02-08T01:58:20;39.53;;;11.80;;
55497;SDS011;41357;52.806;18.268;2023-02-08T02:00:46;35.20;;;11.65;;
55497;SDS011;41357;52.806;18.268;2023-02-08T02:03:13;30.33;;;11.50;;
55497;SDS011;41357;52.806;18.268;2023-02-08T02:05:40;30.25;;;12.20;;
55497;SDS011;41357;52.806;18.268;2023-02-08T02:08:07;33.60;;;11.82;;
55497;SDS011;41357;52.806;18.268;2023-02-08T02:10:34;37.72;;;13.27;;
55497;SDS011;41357;52.806;18.268;2023-02-08T02:13:02;30.60;;;11.93;;
55497;SDS011;41357;52.806;18.268;2023-02-08T02:15:28;33.10;;;12.30;;
55497;SDS011;41357;52.806;18.268;2023-02-08T02:17:54;38.80;;;14.18;;
55497;SDS011;41357;52.806;18.268;2023-02-08T02:35:44;35.10;;;12.98;;
55497;SDS011;41357;52.806;18.268;2023-02-08T02:41:02;28.83;;;11.50;;
55497;SDS011;41357;52.806;18.268;2023-02-08T02:46:26;24.50;;;10.10;;
55497;SDS011;41357;52.806;18.268;2023-02-08T02:51:26;26.58;;;9.70;;
55497;SDS011;41357;52.806;18.268;2023-02-08T02:53:58;28.05;;;12.02;;
55497;SDS011;41357;52.806;18.268;2023-02-08T02:56:27;27.02;;;11.20;;
55497;SDS011;41357;52.806;18.268;2023-02-08T02:58:55;34.13;;;12.43;;
55497;SDS011;41357;52.806;18.268;2023-02-08T03:01:21;24.67;;;9.90;;
55497;SDS011;41357;52.806;18.268;2023-02-08T03:03:53;25.65;;;10.52;;
55497;SDS011;41357;52.806;18.268;2023-02-08T03:09:12;25.42;;;9.82;;
55497;SDS011;41357;52.806;18.268;2023-02-08T03:11:44;24.05;;;10.75;;
55497;SDS011;41357;52.806;18.268;2023-02-08T03:34:07;23.92;;;11.52;;
55497;SDS011;41357;52.806;18.268;2023-02-08T03:39:16;26.25;;;9.98;;
55497;SDS011;41357;52.806;18.268;2023-02-08T03:41:45;24.20;;;10.25;;
55497;SDS011;41357;52.806;18.268;2023-02-08T03:44:14;28.42;;;10.90;;
55497;SDS011;41357;52.806;18.268;2023-02-08T03:46:45;25.42;;;11.18;;
55497;SDS011;41357;52.806;18.268;2023-02-08T03:49:14;28.73;;;12.75;;
55497;SDS011;41357;52.806;18.268;2023-02-08T03:51:41;30.10;;;12.48;;
55497;SDS011;41357;52.806;18.268;2023-02-08T03:54:12;29.40;;;12.48;;
55497;SDS011;41357;52.806;18.268;2023-02-08T03:56:44;31.17;;;12.23;;
55497;SDS011;41357;52.806;18.268;2023-02-08T03:59:12;27.65;;;12.68;;
55497;SDS011;41357;52.806;18.268;2023-02-08T04:01:42;29.25;;;13.65;;
55497;SDS011;41357;52.806;18.268;2023-02-08T04:04:09;30.88;;;13.90;;
55497;SDS011;41357;52.806;18.268;2023-02-08T04:06:36;34.95;;;14.38;;
55497;SDS011;41357;52.806;18.268;2023-02-08T04:09:02;32.88;;;14.40;;
55497;SDS011;41357;52.806;18.268;2023-02-08T04:11:28;28.42;;;12.85;;
55497;SDS011;41357;52.806;18.268;2023-02-08T04:13:54;26.20;;;12.23;;
55497;SDS011;41357;52.806;18.268;2023-02-08T04:16:20;24.75;;;10.98;;
55497;SDS011;41357;52.806;18.268;2023-02-08T04:18:46;26.92;;;11.48;;
55497;SDS011;41357;52.806;18.268;2023-02-08T04:21:12;32.47;;;13.48;;
55497;SDS011;41357;52.806;18.268;2023-02-08T04:23:38;33.67;;;13.38;;
55497;SDS011;41357;52.806;18.268;2023-02-08T04:26:04;27.70;;;10.93;;
55497;SDS011;41357;52.806;18.268;2023-02-08T04:28:32;30.20;;;11.93;;
55497;SDS011;41357;52.806;18.268;2023-02-08T04:30:59;27.67;;;11.63;;
55497;SDS011;41357;52.806;18.268;2023-02-08T04:33:25;28.52;;;11.40;;
55497;SDS011;41357;52.806;18.268;2023-02-08T04:35:51;31.05;;;12.73;;
55497;SDS011;41357;52.806;18.268;2023-02-08T04:38:17;41.70;;;16.08;;
55497;SDS011;41357;52.806;18.268;2023-02-08T04:40:43;33.40;;;13.63;;
55497;SDS011;41357;52.806;18.268;2023-02-08T04:43:09;26.33;;;11.27;;
55497;SDS011;41357;52.806;18.268;2023-02-08T04:45:35;24.17;;;10.43;;
55497;SDS011;41357;52.806;18.268;2023-02-08T04:48:02;22.02;;;9.77;;
55497;SDS011;41357;52.806;18.268;2023-02-08T04:50:28;21.13;;;9.35;;
55497;SDS011;41357;52.806;18.268;2023-02-08T04:52:54;16.75;;;9.10;;
55497;SDS011;41357;52.806;18.268;2023-02-08T04:55:21;20.35;;;8.27;;
55497;SDS011;41357;52.806;18.268;2023-02-08T04:57:47;22.75;;;9.80;;
55497;SDS011;41357;52.806;18.268;2023-02-08T05:00:13;24.70;;;9.68;;
55497;SDS011;41357;52.806;18.268;2023-02-08T05:02:39;24.92;;;10.25;;
55497;SDS011;41357;52.806;18.268;2023-02-08T05:05:05;19.25;;;8.40;;
55497;SDS011;41357;52.806;18.268;2023-02-08T05:07:31;25.70;;;10.23;;
55497;SDS011;41357;52.806;18.268;2023-02-08T05:09:57;29.58;;;11.48;;
55497;SDS011;41357;52.806;18.268;2023-02-08T05:12:23;26.77;;;10.98;;
55497;SDS011;41357;52.806;18.268;2023-02-08T05:14:49;29.77;;;12.02;;
55497;SDS011;41357;52.806;18.268;2023-02-08T05:17:15;24.92;;;10.60;;
55497;SDS011;41357;52.806;18.268;2023-02-08T05:19:41;25.40;;;10.40;;
55497;SDS011;41357;52.806;18.268;2023-02-08T05:22:07;25.20;;;10.18;;
55497;SDS011;41357;52.806;18.268;2023-02-08T05:24:33;30.20;;;11.40;;
55497;SDS011;41357;52.806;18.268;2023-02-08T05:27:02;23.63;;;10.48;;
55497;SDS011;41357;52.806;18.268;2023-02-08T05:29:28;20.05;;;9.23;;
55497;SDS011;41357;52.806;18.268;2023-02-08T05:31:54;23.98;;;10.57;;
55497;SDS011;41357;52.806;18.268;2023-02-08T05:34:20;20.77;;;10.27;;
55497;SDS011;41357;52.806;18.268;2023-02-08T05:36:46;17.38;;;8.75;;
55497;SDS011;41357;52.806;18.268;2023-02-08T05:39:12;34.33;;;12.57;;
55497;SDS011;41357;52.806;18.268;2023-02-08T05:41:38;32.40;;;12.48;;
55497;SDS011;41357;52.806;18.268;2023-02-08T05:44:04;23.58;;;11.55;;
55497;SDS011;41357;52.806;18.268;2023-02-08T05:46:31;23.55;;;11.43;;
55497;SDS011;41357;52.806;18.268;2023-02-08T05:48:57;23.38;;;9.38;;
55497;SDS011;41357;52.806;18.268;2023-02-08T05:51:23;23.55;;;11.05;;
55497;SDS011;41357;52.806;18.268;2023-02-08T05:53:49;29.63;;;11.30;;
55497;SDS011;41357;52.806;18.268;2023-02-08T05:56:15;18.83;;;7.80;;
55497;SDS011;41357;52.806;18.268;2023-02-08T05:58:41;21.65;;;9.00;;
55497;SDS011;41357;52.806;18.268;2023-02-08T06:01:10;19.77;;;7.78;;
55497;SDS011;41357;52.806;18.268;2023-02-08T06:03:37;26.15;;;10.05;;
55497;SDS011;41357;52.806;18.268;2023-02-08T06:06:04;22.33;;;8.25;;
55497;SDS011;41357;52.806;18.268;2023-02-08T06:08:30;19.70;;;9.63;;
55497;SDS011;41357;52.806;18.268;2023-02-08T06:10:56;22.00;;;8.65;;
55497;SDS011;41357;52.806;18.268;2023-02-08T06:13:22;25.15;;;9.35;;
55497;SDS011;41357;52.806;18.268;2023-02-08T06:15:49;22.52;;;9.27;;
55497;SDS011;41357;52.806;18.268;2023-02-08T06:18:15;23.95;;;9.27;;
55497;SDS011;41357;52.806;18.268;2023-02-08T06:20:41;22.05;;;7.82;;
55497;SDS011;41357;52.806;18.268;2023-02-08T06:23:07;17.20;;;7.30;;
55497;SDS011;41357;52.806;18.268;2023-02-08T06:25:33;15.88;;;8.00;;
55497;SDS011;41357;52.806;18.268;2023-02-08T06:27:59;18.70;;;7.78;;
55497;SDS011;41357;52.806;18.268;2023-02-08T06:30:25;17.70;;;7.93;;
55497;SDS011;41357;52.806;18.268;2023-02-08T06:32:51;31.15;;;13.07;;
55497;SDS011;41357;52.806;18.268;2023-02-08T06:35:17;38.72;;;13.40;;
55497;SDS011;41357;52.806;18.268;2023-02-08T06:37:43;36.22;;;13.68;;
55497;SDS011;41357;52.806;18.268;2023-02-08T06:40:09;38.70;;;14.27;;
55497;SDS011;41357;52.806;18.268;2023-02-08T06:42:35;29.17;;;13.55;;
55497;SDS011;41357;52.806;18.268;2023-02-08T06:45:02;35.47;;;13.05;;
55497;SDS011;41357;52.806;18.268;2023-02-08T06:47:28;32.05;;;12.95;;
55497;SDS011;41357;52.806;18.268;2023-02-08T06:49:54;32.08;;;12.38;;
55497;SDS011;41357;52.806;18.268;2023-02-08T06:52:20;35.15;;;12.85;;
55497;SDS011;41357;52.806;18.268;2023-02-08T06:54:46;45.72;;;15.95;;
55497;SDS011;41357;52.806;18.268;2023-02-08T06:57:13;49.95;;;17.55;;
55497;SDS011;41357;52.806;18.268;2023-02-08T06:59:39;31.85;;;11.70;;
55497;SDS011;41357;52.806;18.268;2023-02-08T07:02:09;30.48;;;11.00;;
55497;SDS011;41357;52.806;18.268;2023-02-08T07:04:36;31.42;;;10.40;;
55497;SDS011;41357;52.806;18.268;2023-02-08T07:07:02;30.67;;;13.13;;
55497;SDS011;41357;52.806;18.268;2023-02-08T07:09:28;34.00;;;15.18;;
55497;SDS011;41357;52.806;18.268;2023-02-08T07:11:54;43.08;;;16.85;;
55497;SDS011;41357;52.806;18.268;2023-02-08T07:14:20;39.33;;;14.52;;
55497;SDS011;41357;52.806;18.268;2023-02-08T07:16:46;27.15;;;11.85;;
55497;SDS011;41357;52.806;18.268;2023-02-08T07:19:12;22.63;;;10.52;;
55497;SDS011;41357;52.806;18.268;2023-02-08T07:21:38;26.13;;;10.60;;
55497;SDS011;41357;52.806;18.268;2023-02-08T07:24:05;28.05;;;12.18;;
55497;SDS011;41357;52.806;18.268;2023-02-08T07:26:31;24.23;;;10.77;;
55497;SDS011;41357;52.806;18.268;2023-02-08T07:28:57;24.58;;;10.73;;
55497;SDS011;41357;52.806;18.268;2023-02-08T07:31:23;24.77;;;10.93;;
55497;SDS011;41357;52.806;18.268;2023-02-08T07:33:50;28.55;;;11.32;;
55497;SDS011;41357;52.806;18.268;2023-02-08T07:36:16;26.70;;;11.88;;
55497;SDS011;41357;52.806;18.268;2023-02-08T07:38:42;30.60;;;12.07;;
55497;SDS011;41357;52.806;18.268;2023-02-08T07:41:09;29.45;;;12.18;;
55497;SDS011;41357;52.806;18.268;2023-02-08T07:43:36;27.65;;;12.18;;
55497;SDS011;41357;52.806;18.268;2023-02-08T07:48:32;29.45;;;11.98;;
55497;SDS011;41357;52.806;18.268;2023-02-08T07:50:58;32.00;;;12.68;;
55497;SDS011;41357;52.806;18.268;2023-02-08T07:53:24;34.20;;;12.23;;
55497;SDS011;41357;52.806;18.268;2023-02-08T07:55:50;33.05;;;13.57;;
55497;SDS011;41357;52.806;18.268;2023-02-08T07:58:16;35.60;;;13.27;;
55497;SDS011;41357;52.806;18.268;2023-02-08T08:00:42;47.47;;;15.10;;
55497;SDS011;41357;52.806;18.268;2023-02-08T08:03:09;36.45;;;12.43;;
55497;SDS011;41357;52.806;18.268;2023-02-08T08:05:35;44.45;;;17.00;;
55497;SDS011;41357;52.806;18.268;2023-02-08T08:08:01;47.78;;;17.95;;
55497;SDS011;41357;52.806;18.268;2023-02-08T08:10:27;40.08;;;13.20;;
55497;SDS011;41357;52.806;18.268;2023-02-08T08:12:53;39.50;;;13.52;;
55497;SDS011;41357;52.806;18.268;2023-02-08T08:15:19;44.60;;;17.33;;
55497;SDS011;41357;52.806;18.268;2023-02-08T08:17:45;34.97;;;12.98;;
55497;SDS011;41357;52.806;18.268;2023-02-08T08:20:11;34.88;;;13.32;;
55497;SDS011;41357;52.806;18.268;2023-02-08T08:22:37;36.63;;;15.73;;
55497;SDS011;41357;52.806;18.268;2023-02-08T08:25:04;33.15;;;14.63;;
55497;SDS011;41357;52.806;18.268;2023-02-08T08:27:30;27.95;;;11.13;;
55497;SDS011;41357;52.806;18.268;2023-02-08T08:29:56;26.90;;;13.10;;
55497;SDS011;41357;52.806;18.268;2023-02-08T08:32:24;41.05;;;14.77;;
55497;SDS011;41357;52.806;18.268;2023-02-08T08:34:50;57.28;;;19.75;;
55497;SDS011;41357;52.806;18.268;2023-02-08T08:37:16;45.13;;;16.13;;
55497;SDS011;41357;52.806;18.268;2023-02-08T08:39:42;49.65;;;18.05;;
55497;SDS011;41357;52.806;18.268;2023-02-08T08:42:08;40.67;;;14.95;;
55497;SDS011;41357;52.806;18.268;2023-02-08T08:44:34;46.95;;;16.35;;
55497;SDS011;41357;52.806;18.268;2023-02-08T08:47:00;48.08;;;17.20;;
55497;SDS011;41357;52.806;18.268;2023-02-08T08:49:27;46.58;;;16.75;;
55497;SDS011;41357;52.806;18.268;2023-02-08T08:51:54;47.65;;;15.93;;
55497;SDS011;41357;52.806;18.268;2023-02-08T08:54:20;50.47;;;17.90;;
55497;SDS011;41357;52.806;18.268;2023-02-08T08:56:46;48.95;;;17.20;;
55497;SDS011;41357;52.806;18.268;2023-02-08T08:59:13;53.13;;;16.98;;
55497;SDS011;41357;52.806;18.268;2023-02-08T09:01:39;47.15;;;18.00;;
55497;SDS011;41357;52.806;18.268;2023-02-08T09:04:07;50.53;;;16.35;;
55497;SDS011;41357;52.806;18.268;2023-02-08T09:06:33;50.63;;;19.17;;
55497;SDS011;41357;52.806;18.268;2023-02-08T09:08:59;50.42;;;18.58;;
55497;SDS011;41357;52.806;18.268;2023-02-08T09:11:26;51.67;;;19.60;;
55497;SDS011;41357;52.806;18.268;2023-02-08T09:13:52;44.40;;;18.02;;
55497;SDS011;41357;52.806;18.268;2023-02-08T09:16:20;47.95;;;18.42;;
55497;SDS011;41357;52.806;18.268;2023-02-08T09:18:47;35.88;;;15.15;;
55497;SDS011;41357;52.806;18.268;2023-02-08T09:21:14;43.75;;;15.90;;
55497;SDS011;41357;52.806;18.268;2023-02-08T09:23:40;42.25;;;16.23;;
55497;SDS011;41357;52.806;18.268;2023-02-08T09:26:08;46.17;;;18.08;;
55497;SDS011;41357;52.806;18.268;2023-02-08T09:28:34;40.47;;;15.50;;
55497;SDS011;41357;52.806;18.268;2023-02-08T09:33:46;43.35;;;15.57;;
55497;SDS011;41357;52.806;18.268;2023-02-08T09:36:12;39.95;;;14.10;;
55497;SDS011;41357;52.806;18.268;2023-02-08T09:38:38;39.30;;;16.35;;
55497;SDS011;41357;52.806;18.268;2023-02-08T09:41:12;43.45;;;14.73;;
55497;SDS011;41357;52.806;18.268;2023-02-08T09:46:19;40.83;;;15.68;;
55497;SDS011;41357;52.806;18.268;2023-02-08T09:48:45;40.33;;;14.10;;
55497;SDS011;41357;52.806;18.268;2023-02-08T09:53:52;41.42;;;15.85;;
55497;SDS011;41357;52.806;18.268;2023-02-08T09:56:24;29.65;;;11.10;;
55497;SDS011;41357;52.806;18.268;2023-02-08T09:58:51;41.20;;;15.98;;
55497;SDS011;41357;52.806;18.268;2023-02-08T10:01:21;43.55;;;15.23;;
55497;SDS011;41357;52.806;18.268;2023-02-08T10:03:49;46.00;;;16.63;;
55497;SDS011;41357;52.806;18.268;2023-02-08T10:06:17;35.63;;;15.35;;
55497;SDS011;41357;52.806;18.268;2023-02-08T10:08:44;34.75;;;14.63;;
55497;SDS011;41357;52.806;18.268;2023-02-08T10:27:26;33.00;;;13.10;;
55497;SDS011;41357;52.806;18.268;2023-02-08T10:32:27;29.08;;;11.55;;
55497;SDS011;41357;52.806;18.268;2023-02-08T10:34:59;33.45;;;11.43;;
55497;SDS011;41357;52.806;18.268;2023-02-08T10:37:31;33.17;;;12.02;;
55497;SDS011;41357;52.806;18.268;2023-02-08T10:42:47;23.73;;;10.52;;
55497;SDS011;41357;52.806;18.268;2023-02-08T10:45:15;33.83;;;12.57;;
55497;SDS011;41357;52.806;18.268;2023-02-08T10:47:44;27.92;;;11.75;;
55497;SDS011;41357;52.806;18.268;2023-02-08T10:52:55;31.80;;;11.93;;
55497;SDS011;41357;52.806;18.268;2023-02-08T10:55:22;26.73;;;11.40;;
55497;SDS011;41357;52.806;18.268;2023-02-08T10:57:49;27.50;;;11.02;;
55497;SDS011;41357;52.806;18.268;2023-02-08T11:00:18;29.77;;;12.50;;
55497;SDS011;41357;52.806;18.268;2023-02-08T11:02:44;30.23;;;13.07;;
55497;SDS011;41357;52.806;18.268;2023-02-08T11:05:12;34.10;;;12.98;;
55497;SDS011;41357;52.806;18.268;2023-02-08T11:07:39;26.88;;;12.32;;
55497;SDS011;41357;52.806;18.268;2023-02-08T11:12:56;38.88;;;13.55;;
55497;SDS011;41357;52.806;18.268;2023-02-08T11:15:24;28.75;;;12.45;;
55497;SDS011;41357;52.806;18.268;2023-02-08T11:17:55;25.48;;;12.60;;
55497;SDS011;41357;52.806;18.268;2023-02-08T11:20:26;41.30;;;15.85;;
55497;SDS011;41357;52.806;18.268;2023-02-08T11:22:55;25.80;;;12.00;;
55497;SDS011;41357;52.806;18.268;2023-02-08T11:25:32;27.98;;;11.23;;
55497;SDS011;41357;52.806;18.268;2023-02-08T11:27:59;28.17;;;10.18;;
55497;SDS011;41357;52.806;18.268;2023-02-08T11:30:25;26.40;;;12.32;;
55497;SDS011;41357;52.806;18.268;2023-02-08T11:35:36;31.98;;;12.45;;
55497;SDS011;41357;52.806;18.268;2023-02-08T11:38:02;26.77;;;12.70;;
55497;SDS011;41357;52.806;18.268;2023-02-08T11:40:30;27.00;;;10.98;;
55497;SDS011;41357;52.806;18.268;2023-02-08T11:42:57;39.25;;;13.50;;
55497;SDS011;41357;52.806;18.268;2023-02-08T11:45:44;30.27;;;12.05;;
55497;SDS011;41357;52.806;18.268;2023-02-08T11:48:16;23.88;;;11.07;;
55497;SDS011;41357;52.806;18.268;2023-02-08T11:50:45;21.98;;;10.52;;
55497;SDS011;41357;52.806;18.268;2023-02-08T11:53:22;32.40;;;13.75;;
55497;SDS011;41357;52.806;18.268;2023-02-08T11:56:35;30.55;;;11.75;;
55497;SDS011;41357;52.806;18.268;2023-02-08T11:58:54;40.25;;;13.52;;
55497;SDS011;41357;52.806;18.268;2023-02-08T12:01:20;26.92;;;11.93;;
55497;SDS011;41357;52.806;18.268;2023-02-08T12:03:47;36.85;;;15.43;;
55497;SDS011;41357;52.806;18.268;2023-02-08T12:06:24;31.42;;;13.63;;
55497;SDS011;41357;52.806;18.268;2023-02-08T12:21:56;28.17;;;12.13;;
55497;SDS011;41357;52.806;18.268;2023-02-08T12:29:41;30.48;;;13.38;;
55497;SDS011;41357;52.806;18.268;2023-02-08T12:37:18;24.02;;;10.68;;
55497;SDS011;41357;52.806;18.268;2023-02-08T12:51:00;26.95;;;12.73;;
55497;SDS011;41357;52.806;18.268;2023-02-08T12:53:30;24.70;;;10.05;;
55497;SDS011;41357;52.806;18.268;2023-02-08T12:55:57;29.80;;;12.32;;
55497;SDS011;41357;52.806;18.268;2023-02-08T12:58:26;35.75;;;13.98;;
55497;SDS011;41357;52.806;18.268;2023-02-08T13:00:54;42.97;;;16.70;;
55497;SDS011;41357;52.806;18.268;2023-02-08T13:06:00;35.42;;;13.68;;
55497;SDS011;41357;52.806;18.268;2023-02-08T13:11:58;36.80;;;12.32;;
55497;SDS011;41357;52.806;18.268;2023-02-08T13:14:03;25.67;;;12.77;;
55497;SDS011;41357;52.806;18.268;2023-02-08T13:16:31;33.03;;;12.73;;
55497;SDS011;41357;52.806;18.268;2023-02-08T13:21:43;34.83;;;14.25;;
55497;SDS011;41357;52.806;18.268;2023-02-08T13:26:55;41.03;;;16.17;;
55497;SDS011;41357;52.806;18.268;2023-02-08T13:29:21;36.17;;;15.00;;
55497;SDS011;41357;52.806;18.268;2023-02-08T13:31:50;41.63;;;15.95;;
55497;SDS011;41357;52.806;18.268;2023-02-08T13:34:24;34.55;;;14.65;;
55497;SDS011;41357;52.806;18.268;2023-02-08T13:37:02;41.78;;;15.38;;
55497;SDS011;41357;52.806;18.268;2023-02-08T13:42:01;46.45;;;18.13;;
55497;SDS011;41357;52.806;18.268;2023-02-08T13:44:32;37.85;;;15.70;;
55497;SDS011;41357;52.806;18.268;2023-02-08T13:47:00;42.05;;;15.48;;
55497;SDS011;41357;52.806;18.268;2023-02-08T13:52:11;29.55;;;12.68;;
55497;SDS011;41357;52.806;18.268;2023-02-08T13:57:50;27.92;;;12.23;;
55497;SDS011;41357;52.806;18.268;2023-02-08T14:02:59;32.05;;;14.48;;
55497;SDS011;41357;52.806;18.268;2023-02-08T14:08:21;24.92;;;12.13;;
55497;SDS011;41357;52.806;18.268;2023-02-08T14:13:35;41.55;;;17.02;;
55497;SDS011;41357;52.806;18.268;2023-02-08T14:16:21;32.72;;;14.13;;
55497;SDS011;41357;52.806;18.268;2023-02-08T14:19:54;40.50;;;16.38;;
55497;SDS011;41357;52.806;18.268;2023-02-08T14:21:47;35.65;;;14.43;;
55497;SDS011;41357;52.806;18.268;2023-02-08T14:24:19;32.72;;;13.63;;
55497;SDS011;41357;52.806;18.268;2023-02-08T14:26:46;37.33;;;16.52;;
55497;SDS011;41357;52.806;18.268;2023-02-08T14:29:25;39.35;;;17.95;;
55497;SDS011;41357;52.806;18.268;2023-02-08T14:31:51;41.00;;;18.67;;
55497;SDS011;41357;52.806;18.268;2023-02-08T14:36:56;42.40;;;17.98;;
55497;SDS011;41357;52.806;18.268;2023-02-08T14:39:27;43.17;;;17.40;;
55497;SDS011;41357;52.806;18.268;2023-02-08T14:41:55;35.45;;;15.52;;
55497;SDS011;41357;52.806;18.268;2023-02-08T14:52:46;36.47;;;15.25;;
55497;SDS011;41357;52.806;18.268;2023-02-08T14:55:16;40.47;;;17.23;;
55497;SDS011;41357;52.806;18.268;2023-02-08T14:57:44;39.60;;;15.48;;
55497;SDS011;41357;52.806;18.268;2023-02-08T15:02:56;66.88;;;22.95;;
55497;SDS011;41357;52.806;18.268;2023-02-08T15:05:26;77.00;;;26.85;;
55497;SDS011;41357;52.806;18.268;2023-02-08T15:07:53;49.10;;;18.38;;
55497;SDS011;41357;52.806;18.268;2023-02-08T15:10:20;55.35;;;19.08;;
55497;SDS011;41357;52.806;18.268;2023-02-08T15:12:55;52.70;;;18.85;;
55497;SDS011;41357;52.806;18.268;2023-02-08T15:17:48;113.97;;;30.40;;
55497;SDS011;41357;52.806;18.268;2023-02-08T15:20:20;82.57;;;24.63;;
55497;SDS011;41357;52.806;18.268;2023-02-08T15:22:47;107.38;;;39.17;;
55497;SDS011;41357;52.806;18.268;2023-02-08T15:27:54;102.72;;;33.05;;
55497;SDS011;41357;52.806;18.268;2023-02-08T15:30:33;114.20;;;42.08;;
55497;SDS011;41357;52.806;18.268;2023-02-08T15:33:00;122.50;;;34.08;;
55497;SDS011;41357;52.806;18.268;2023-02-08T15:35:27;114.75;;;38.10;;
55497;SDS011;41357;52.806;18.268;2023-02-08T15:37:53;100.05;;;34.40;;
55497;SDS011;41357;52.806;18.268;2023-02-08T15:40:31;117.63;;;35.47;;
55497;SDS011;41357;52.806;18.268;2023-02-08T15:45:33;63.97;;;23.27;;
55497;SDS011;41357;52.806;18.268;2023-02-08T15:47:59;50.80;;;20.63;;
55497;SDS011;41357;52.806;18.268;2023-02-08T15:50:26;68.85;;;25.40;;
55497;SDS011;41357;52.806;18.268;2023-02-08T15:52:57;65.13;;;23.67;;
55497;SDS011;41357;52.806;18.268;2023-02-08T15:55:24;58.90;;;23.45;;
55497;SDS011;41357;52.806;18.268;2023-02-08T15:58:07;63.13;;;22.35;;
55497;SDS011;41357;52.806;18.268;2023-02-08T16:00:41;61.88;;;23.42;;
55497;SDS011;41357;52.806;18.268;2023-02-08T16:03:15;68.05;;;22.50;;
55497;SDS011;41357;52.806;18.268;2023-02-08T16:05:43;63.85;;;22.55;;
55497;SDS011;41357;52.806;18.268;2023-02-08T16:08:13;80.72;;;28.40;;
55497;SDS011;41357;52.806;18.268;2023-02-08T16:10:45;102.82;;;35.92;;
55497;SDS011;41357;52.806;18.268;2023-02-08T16:13:15;73.60;;;27.88;;
55497;SDS011;41357;52.806;18.268;2023-02-08T16:15:43;57.05;;;22.02;;
55497;SDS011;41357;52.806;18.268;2023-02-08T16:21:01;81.45;;;30.33;;
55497;SDS011;41357;52.806;18.268;2023-02-08T16:23:31;65.55;;;24.55;;
55497;SDS011;41357;52.806;18.268;2023-02-08T16:26:08;78.55;;;27.27;;
55497;SDS011;41357;52.806;18.268;2023-02-08T16:28:36;77.10;;;30.17;;
55497;SDS011;41357;52.806;18.268;2023-02-08T16:31:02;67.72;;;27.70;;
55497;SDS011;41357;52.806;18.268;2023-02-08T16:33:30;59.50;;;23.27;;
55497;SDS011;41357;52.806;18.268;2023-02-08T16:35:56;57.38;;;21.08;;
55497;SDS011;41357;52.806;18.268;2023-02-08T16:38:26;51.72;;;21.52;;
55497;SDS011;41357;52.806;18.268;2023-02-08T16:40:53;62.53;;;24.63;;
55497;SDS011;41357;52.806;18.268;2023-02-08T16:43:23;79.28;;;29.92;;
55497;SDS011;41357;52.806;18.268;2023-02-08T16:48:36;69.43;;;27.67;;
55497;SDS011;41357;52.806;18.268;2023-02-08T16:51:03;60.33;;;24.60;;
55497;SDS011;41357;52.806;18.268;2023-02-08T16:53:30;105.20;;;36.60;;
55497;SDS011;41357;52.806;18.268;2023-02-08T16:55:57;74.78;;;29.40;;
55497;SDS011;41357;52.806;18.268;2023-02-08T16:58:23;72.22;;;28.45;;
55497;SDS011;41357;52.806;18.268;2023-02-08T17:00:50;316.27;;;100.13;;
55497;SDS011;41357;52.806;18.268;2023-02-08T17:03:16;184.25;;;61.08;;
55497;SDS011;41357;52.806;18.268;2023-02-08T17:05:42;223.95;;;70.82;;
55497;SDS011;41357;52.806;18.268;2023-02-08T17:08:16;128.70;;;42.92;;
55497;SDS011;41357;52.806;18.268;2023-02-08T17:10:43;114.15;;;39.67;;
55497;SDS011;41357;52.806;18.268;2023-02-08T17:13:09;91.25;;;33.08;;